sensor_id;sensor_type;location;lat;lon;timestamp;pressure;altitude;pressure_sealevel;temperature;humidity
76637;BME280;65532;52.124;5.480;2024-03-06T00:01:05;101800.84;;;5.51;100.00
76637;BME280;65532;52.124;5.480;2024-03-06T00:03:33;101803.72;;;5.49;100.00
76637;BME280;65532;52.124;5.480;2024-03-06T00:05:59;101802.25;;;5.38;100.00
76637;BME280;65532;52.124;5.480;2024-03-06T00:08:26;101807.50;;;5.24;100.00
76637;BME280;65532;52.124;5.480;2024-03-06T00:10:52;101806.69;;;5.15;100.00
76637;BME280;65532;52.124;5.480;2024-03-06T00:13:19;101809.88;;;5.10;100.00
76637;BME280;65532;52.124;5.480;2024-03-06T00:15:46;101814.91;;;5.14;100.00
76637;BME280;65532;52.124;5.480;2024-03-06T00:18:13;101827.81;;;5.18;100.00
76637;BME280;65532;52.124;5.480;2024-03-06T00:20:40;101817.25;;;5.17;100.00
76637;BME280;65532;52.124;5.480;2024-03-06T00:23:08;101829.00;;;5.16;100.00
76637;BME280;65532;52.124;5.480;2024-03-06T00:25:35;101826.97;;;5.18;100.00
76637;BME280;65532;52.124;5.480;2024-03-06T00:28:02;101823.28;;;5.19;100.00
76637;BME280;65532;52.124;5.480;2024-03-06T00:30:29;101821.28;;;5.21;100.00
76637;BME280;65532;52.124;5.480;2024-03-06T00:32:55;101822.94;;;5.22;100.00
76637;BME280;65532;52.124;5.480;2024-03-06T00:35:22;101826.31;;;5.24;100.00
76637;BME280;65532;52.124;5.480;2024-03-06T00:37:48;101827.78;;;5.26;100.00
76637;BME280;65532;52.124;5.480;2024-03-06T00:40:15;101832.81;;;5.29;100.00
76637;BME280;65532;52.124;5.480;2024-03-06T00:42:41;101838.00;;;5.31;100.00
76637;BME280;65532;52.124;5.480;2024-03-06T00:45:08;101837.66;;;5.34;100.00
76637;BME280;65532;52.124;5.480;2024-03-06T00:47:35;101833.97;;;5.35;100.00
76637;BME280;65532;52.124;5.480;2024-03-06T00:50:02;101834.66;;;5.37;100.00
76637;BME280;65532;52.124;5.480;2024-03-06T00:52:28;101839.34;;;5.35;100.00
76637;BME280;65532;52.124;5.480;2024-03-06T00:54:55;101837.03;;;5.24;100.00
76637;BME280;65532;52.124;5.480;2024-03-06T00:57:23;101847.25;;;5.20;100.00
76637;BME280;65532;52.124;5.480;2024-03-06T00:59:50;101842.06;;;5.19;100.00
76637;BME280;65532;52.124;5.480;2024-03-06T01:02:17;101841.22;;;5.18;100.00
76637;BME280;65532;52.124;5.480;2024-03-06T01:04:43;101846.44;;;5.11;100.00
76637;BME280;65532;52.124;5.480;2024-03-06T01:07:10;101846.44;;;5.11;100.00
76637;BME280;65532;52.124;5.480;2024-03-06T01:09:36;101849.97;;;5.12;100.00
76637;BME280;65532;52.124;5.480;2024-03-06T01:12:03;101853.81;;;5.18;100.00
76637;BME280;65532;52.124;5.480;2024-03-06T01:14:30;101856.84;;;5.23;100.00
76637;BME280;65532;52.124;5.480;2024-03-06T01:16:57;101858.34;;;5.25;100.00
76637;BME280;65532;52.124;5.480;2024-03-06T01:19:23;101856.13;;;5.29;100.00
76637;BME280;65532;52.124;5.480;2024-03-06T01:21:50;101857.81;;;5.30;100.00
76637;BME280;65532;52.124;5.480;2024-03-06T01:24:16;101861.34;;;5.30;100.00
76637;BME280;65532;52.124;5.480;2024-03-06T01:26:43;101861.16;;;5.32;100.00
76637;BME280;65532;52.124;5.480;2024-03-06T01:29:09;101862.84;;;5.33;100.00
76637;BME280;65532;52.124;5.480;2024-03-06T01:31:36;101866.19;;;5.35;100.00
76637;BME280;65532;52.124;5.480;2024-03-06T01:34:02;101873.22;;;5.36;100.00
76637;BME280;65532;52.124;5.480;2024-03-06T01:36:29;101870.72;;;5.34;100.00
76637;BME280;65532;52.124;5.480;2024-03-06T01:38:56;101869.88;;;5.34;100.00
76637;BME280;65532;52.124;5.480;2024-03-06T01:41:22;101873.56;;;5.33;100.00
76637;BME280;65532;52.124;5.480;2024-03-06T01:43:49;101879.59;;;5.35;100.00
76637;BME280;65532;52.124;5.480;2024-03-06T01:46:15;101883.66;;;5.39;100.00
76637;BME280;65532;52.124;5.480;2024-03-06T01:48:41;101878.28;;;5.39;100.00
76637;BME280;65532;52.124;5.480;2024-03-06T01:51:09;101875.41;;;5.40;100.00
76637;BME280;65532;52.124;5.480;2024-03-06T01:53:36;101873.09;;;5.37;100.00
76637;BME280;65532;52.124;5.480;2024-03-06T01:56:04;101870.94;;;5.25;100.00
76637;BME280;65532;52.124;5.480;2024-03-06T01:58:31;101869.06;;;5.17;100.00
76637;BME280;65532;52.124;5.480;2024-03-06T02:01:00;101865.91;;;5.14;100.00
76637;BME280;65532;52.124;5.480;2024-03-06T02:03:27;101875.47;;;5.08;100.00
76637;BME280;65532;52.124;5.480;2024-03-06T02:05:54;101879.34;;;5.05;100.00
76637;BME280;65532;52.124;5.480;2024-03-06T02:08:21;101869.94;;;5.01;100.00
76637;BME280;65532;52.124;5.480;2024-03-06T02:10:47;101883.19;;;4.95;100.00
76637;BME280;65532;52.124;5.480;2024-03-06T02:13:14;101877.66;;;4.88;100.00
76637;BME280;65532;52.124;5.480;2024-03-06T02:15:41;101889.06;;;4.82;100.00
76637;BME280;65532;52.124;5.480;2024-03-06T02:18:08;101886.38;;;4.82;100.00
76637;BME280;65532;52.124;5.480;2024-03-06T02:20:38;101886.38;;;4.82;100.00
76637;BME280;65532;52.124;5.480;2024-03-06T02:23:05;101890.06;;;4.81;100.00
76637;BME280;65532;52.124;5.480;2024-03-06T02:25:31;101893.06;;;4.70;100.00
76637;BME280;65532;52.124;5.480;2024-03-06T02:27:58;101885.88;;;4.62;100.00
76637;BME280;65532;52.124;5.480;2024-03-06T02:30:25;101885.38;;;4.59;100.00
76637;BME280;65532;52.124;5.480;2024-03-06T02:32:51;101891.59;;;4.59;100.00
76637;BME280;65532;52.124;5.480;2024-03-06T02:35:18;101886.69;;;4.55;100.00
76637;BME280;65532;52.124;5.480;2024-03-06T02:37:44;101886.03;;;4.53;100.00
76637;BME280;65532;52.124;5.480;2024-03-06T02:40:11;101886.34;;;4.49;100.00
76637;BME280;65532;52.124;5.480;2024-03-06T02:42:38;101899.44;;;4.44;100.00
76637;BME280;65532;52.124;5.480;2024-03-06T02:45:06;101901.91;;;4.38;100.00
76637;BME280;65532;52.124;5.480;2024-03-06T02:47:33;101898.41;;;4.37;100.00
76637;BME280;65532;52.124;5.480;2024-03-06T02:50:00;101901.06;;;4.37;100.00
76637;BME280;65532;52.124;5.480;2024-03-06T02:52:27;101898.06;;;4.32;100.00
76637;BME280;65532;52.124;5.480;2024-03-06T02:54:54;101900.03;;;4.22;100.00
76637;BME280;65532;52.124;5.480;2024-03-06T02:57:20;101895.66;;;4.13;100.00
76637;BME280;65532;52.124;5.480;2024-03-06T02:59:47;101894.47;;;4.07;100.00
76637;BME280;65532;52.124;5.480;2024-03-06T03:02:14;101899.66;;;4.09;100.00
76637;BME280;65532;52.124;5.480;2024-03-06T03:04:40;101904.34;;;4.07;100.00
76637;BME280;65532;52.124;5.480;2024-03-06T03:07:07;101909.34;;;4.02;100.00
76637;BME280;65532;52.124;5.480;2024-03-06T03:09:33;101906.63;;;3.94;100.00
76637;BME280;65532;52.124;5.480;2024-03-06T03:12:02;101908.97;;;3.88;100.00
76637;BME280;65532;52.124;5.480;2024-03-06T03:14:28;101905.09;;;3.83;100.00
76637;BME280;65532;52.124;5.480;2024-03-06T03:16:55;101915.31;;;3.79;100.00
76637;BME280;65532;52.124;5.480;2024-03-06T03:19:21;101904.38;;;3.73;100.00
76637;BME280;65532;52.124;5.480;2024-03-06T03:21:48;101907.53;;;3.68;100.00
76637;BME280;65532;52.124;5.480;2024-03-06T03:24:15;101908.84;;;3.64;100.00
76637;BME280;65532;52.124;5.480;2024-03-06T03:26:41;101907.19;;;3.63;100.00
76637;BME280;65532;52.124;5.480;2024-03-06T03:29:08;101910.66;;;3.55;100.00
76637;BME280;65532;52.124;5.480;2024-03-06T03:31:34;101914.47;;;3.53;100.00
76637;BME280;65532;52.124;5.480;2024-03-06T03:34:02;101915.47;;;3.52;100.00
76637;BME280;65532;52.124;5.480;2024-03-06T03:36:29;101907.44;;;3.52;100.00
76637;BME280;65532;52.124;5.480;2024-03-06T03:38:55;101907.78;;;3.49;100.00
76637;BME280;65532;52.124;5.480;2024-03-06T03:41:22;101905.09;;;3.49;100.00
76637;BME280;65532;52.124;5.480;2024-03-06T03:43:49;101911.47;;;3.56;100.00
76637;BME280;65532;52.124;5.480;2024-03-06T03:46:15;101915.31;;;3.53;100.00
76637;BME280;65532;52.124;5.480;2024-03-06T03:48:42;101917.41;;;3.42;100.00
76637;BME280;65532;52.124;5.480;2024-03-06T03:51:09;101920.41;;;3.39;100.00
76637;BME280;65532;52.124;5.480;2024-03-06T03:53:35;101921.09;;;3.41;100.00
76637;BME280;65532;52.124;5.480;2024-03-06T03:56:02;101929.47;;;3.46;100.00
76637;BME280;65532;52.124;5.480;2024-03-06T03:58:29;101925.75;;;3.39;100.00
76637;BME280;65532;52.124;5.480;2024-03-06T04:00:56;101917.66;;;3.30;100.00
76637;BME280;65532;52.124;5.480;2024-03-06T04:03:23;101917.09;;;3.19;100.00
76637;BME280;65532;52.124;5.480;2024-03-06T04:05:50;101927.56;;;3.12;100.00
76637;BME280;65532;52.124;5.480;2024-03-06T04:08:17;101924.00;;;3.04;100.00
76637;BME280;65532;52.124;5.480;2024-03-06T04:10:44;101926.72;;;2.86;100.00
76637;BME280;65532;52.124;5.480;2024-03-06T04:13:15;101931.44;;;2.74;100.00
76637;BME280;65532;52.124;5.480;2024-03-06T04:15:43;101938.63;;;2.74;100.00
76637;BME280;65532;52.124;5.480;2024-03-06T04:18:09;101931.75;;;2.71;100.00
76637;BME280;65532;52.124;5.480;2024-03-06T04:20:36;101934.84;;;2.66;100.00
76637;BME280;65532;52.124;5.480;2024-03-06T04:23:02;101938.47;;;2.57;100.00
76637;BME280;65532;52.124;5.480;2024-03-06T04:25:30;101939.06;;;2.51;100.00
76637;BME280;65532;52.124;5.480;2024-03-06T04:27:56;101932.19;;;2.49;100.00
76637;BME280;65532;52.124;5.480;2024-03-06T04:30:23;101941.19;;;2.48;100.00
76637;BME280;65532;52.124;5.480;2024-03-06T04:32:49;101936.63;;;2.40;100.00
76637;BME280;65532;52.124;5.480;2024-03-06T04:35:16;101946.16;;;2.43;100.00
76637;BME280;65532;52.124;5.480;2024-03-06T04:37:42;101941.66;;;2.43;100.00
76637;BME280;65532;52.124;5.480;2024-03-06T04:40:10;101950.97;;;2.39;100.00
76637;BME280;65532;52.124;5.480;2024-03-06T04:42:37;101947.88;;;2.34;100.00
76637;BME280;65532;52.124;5.480;2024-03-06T04:45:10;101945.97;;;2.26;100.00
76637;BME280;65532;52.124;5.480;2024-03-06T04:47:37;101955.97;;;2.24;100.00
76637;BME280;65532;52.124;5.480;2024-03-06T04:50:08;101959.78;;;2.22;100.00
76637;BME280;65532;52.124;5.480;2024-03-06T04:52:40;101967.94;;;2.20;100.00
76637;BME280;65532;52.124;5.480;2024-03-06T04:55:07;101958.19;;;2.01;100.00
76637;BME280;65532;52.124;5.480;2024-03-06T04:57:34;101969.34;;;1.87;100.00
76637;BME280;65532;52.124;5.480;2024-03-06T05:00:01;101964.78;;;1.70;100.00
76637;BME280;65532;52.124;5.480;2024-03-06T05:02:33;101968.19;;;1.53;100.00
76637;BME280;65532;52.124;5.480;2024-03-06T05:05:20;101966.81;;;1.48;100.00
76637;BME280;65532;52.124;5.480;2024-03-06T05:08:05;101968.19;;;1.53;100.00
76637;BME280;65532;52.124;5.480;2024-03-06T05:10:50;101973.81;;;1.59;100.00
76637;BME280;65532;52.124;5.480;2024-03-06T05:13:35;101977.81;;;1.73;100.00
76637;BME280;65532;52.124;5.480;2024-03-06T05:16:18;101975.72;;;1.76;100.00
76637;BME280;65532;52.124;5.480;2024-03-06T05:19:03;101990.22;;;1.74;100.00
76637;BME280;65532;52.124;5.480;2024-03-06T05:21:48;101990.47;;;1.71;100.00
76637;BME280;65532;52.124;5.480;2024-03-06T05:24:32;101994.03;;;1.62;100.00
76637;BME280;65532;52.124;5.480;2024-03-06T05:27:16;102006.38;;;1.53;100.00
76637;BME280;65532;52.124;5.480;2024-03-06T05:30:03;102004.72;;;1.52;100.00
76637;BME280;65532;52.124;5.480;2024-03-06T05:32:49;102001.06;;;1.53;100.00
76637;BME280;65532;52.124;5.480;2024-03-06T05:35:33;102008.91;;;1.55;100.00
76637;BME280;65532;52.124;5.480;2024-03-06T05:38:17;102007.38;;;1.62;100.00
76637;BME280;65532;52.124;5.480;2024-03-06T05:41:00;102002.72;;;1.64;100.00
76637;BME280;65532;52.124;5.480;2024-03-06T05:43:44;102007.06;;;1.65;100.00
76637;BME280;65532;52.124;5.480;2024-03-06T05:46:28;102017.59;;;1.57;100.00
76637;BME280;65532;52.124;5.480;2024-03-06T05:49:13;102021.00;;;1.49;100.00
76637;BME280;65532;52.124;5.480;2024-03-06T05:51:57;102033.09;;;1.43;100.00
76637;BME280;65532;52.124;5.480;2024-03-06T05:54:41;102028.03;;;1.40;100.00
76637;BME280;65532;52.124;5.480;2024-03-06T05:57:25;102029.19;;;1.28;100.00
76637;BME280;65532;52.124;5.480;2024-03-06T06:00:09;102036.03;;;1.21;100.00
76637;BME280;65532;52.124;5.480;2024-03-06T06:02:38;102030.84;;;1.19;100.00
76637;BME280;65532;52.124;5.480;2024-03-06T06:05:05;102039.69;;;1.20;100.00
76637;BME280;65532;52.124;5.480;2024-03-06T06:07:49;102054.44;;;1.14;100.00
76637;BME280;65532;52.124;5.480;2024-03-06T06:10:16;102047.44;;;1.13;100.00
76637;BME280;65532;52.124;5.480;2024-03-06T06:12:47;102062.84;;;1.19;100.00
76637;BME280;65532;52.124;5.480;2024-03-06T06:15:13;102063.13;;;1.26;100.00
76637;BME280;65532;52.124;5.480;2024-03-06T06:17:40;102065.09;;;1.34;100.00
76637;BME280;65532;52.124;5.480;2024-03-06T06:20:09;102066.22;;;1.41;100.00
76637;BME280;65532;52.124;5.480;2024-03-06T06:22:41;102071.56;;;1.41;100.00
76637;BME280;65532;52.124;5.480;2024-03-06T06:25:08;102076.03;;;1.40;100.00
76637;BME280;65532;52.124;5.480;2024-03-06T06:27:36;102078.88;;;1.48;100.00
76637;BME280;65532;52.124;5.480;2024-03-06T06:30:03;102074.94;;;1.53;100.00
76637;BME280;65532;52.124;5.480;2024-03-06T06:32:32;102079.97;;;1.56;100.00
76637;BME280;65532;52.124;5.480;2024-03-06T06:34:59;102079.00;;;1.57;100.00
76637;BME280;65532;52.124;5.480;2024-03-06T06:37:26;102083.34;;;1.58;100.00
76637;BME280;65532;52.124;5.480;2024-03-06T06:39:53;102086.16;;;1.56;100.00
76637;BME280;65532;52.124;5.480;2024-03-06T06:42:19;102096.69;;;1.58;100.00
76637;BME280;65532;52.124;5.480;2024-03-06T06:44:46;102093.06;;;1.59;100.00
76637;BME280;65532;52.124;5.480;2024-03-06T06:47:12;102101.88;;;1.69;100.00
76637;BME280;65532;52.124;5.480;2024-03-06T06:49:39;102106.38;;;1.78;100.00
76637;BME280;65532;52.124;5.480;2024-03-06T06:52:05;102113.66;;;1.86;100.00
76637;BME280;65532;52.124;5.480;2024-03-06T06:54:31;102106.09;;;1.91;100.00
76637;BME280;65532;52.124;5.480;2024-03-06T06:56:58;102111.97;;;1.94;100.00
76637;BME280;65532;52.124;5.480;2024-03-06T06:59:24;102121.81;;;1.94;100.00
76637;BME280;65532;52.124;5.480;2024-03-06T07:01:51;102122.63;;;2.04;100.00
76637;BME280;65532;52.124;5.480;2024-03-06T07:04:18;102124.59;;;2.12;100.00
76637;BME280;65532;52.124;5.480;2024-03-06T07:06:46;102136.22;;;2.20;100.00
76637;BME280;65532;52.124;5.480;2024-03-06T07:09:13;102128.47;;;2.27;100.00
76637;BME280;65532;52.124;5.480;2024-03-06T07:11:42;102134.66;;;2.37;100.00
76637;BME280;65532;52.124;5.480;2024-03-06T07:14:12;102137.13;;;2.48;100.00
76637;BME280;65532;52.124;5.480;2024-03-06T07:16:42;102141.75;;;2.56;100.00
76637;BME280;65532;52.124;5.480;2024-03-06T07:19:10;102138.63;;;2.60;100.00
76637;BME280;65532;52.124;5.480;2024-03-06T07:21:36;102138.75;;;2.68;100.00
76637;BME280;65532;52.124;5.480;2024-03-06T07:24:04;102145.19;;;2.76;100.00
76637;BME280;65532;52.124;5.480;2024-03-06T07:26:34;102155.56;;;2.79;100.00
76637;BME280;65532;52.124;5.480;2024-03-06T07:29:01;102150.75;;;2.82;100.00
76637;BME280;65532;52.124;5.480;2024-03-06T07:31:29;102158.38;;;2.87;100.00
76637;BME280;65532;52.124;5.480;2024-03-06T07:33:56;102160.75;;;2.90;100.00
76637;BME280;65532;52.124;5.480;2024-03-06T07:36:22;102158.75;;;2.92;100.00
76637;BME280;65532;52.124;5.480;2024-03-06T07:38:49;102158.88;;;3.00;100.00
76637;BME280;65532;52.124;5.480;2024-03-06T07:41:15;102164.44;;;3.07;100.00
76637;BME280;65532;52.124;5.480;2024-03-06T07:43:42;102164.69;;;3.13;100.00
76637;BME280;65532;52.124;5.480;2024-03-06T07:46:08;102166.09;;;3.17;100.00
76637;BME280;65532;52.124;5.480;2024-03-06T07:48:37;102172.50;;;3.24;100.00
76637;BME280;65532;52.124;5.480;2024-03-06T07:51:04;102173.31;;;3.35;100.00
76637;BME280;65532;52.124;5.480;2024-03-06T07:53:30;102178.03;;;3.41;100.00
76637;BME280;65532;52.124;5.480;2024-03-06T07:55:57;102181.66;;;3.49;100.00
76637;BME280;65532;52.124;5.480;2024-03-06T07:58:24;102180.97;;;3.47;100.00
76637;BME280;65532;52.124;5.480;2024-03-06T08:00:50;102192.41;;;3.40;100.00
76637;BME280;65532;52.124;5.480;2024-03-06T08:03:19;102186.59;;;3.44;100.00
76637;BME280;65532;52.124;5.480;2024-03-06T08:05:46;102188.84;;;3.49;100.00
76637;BME280;65532;52.124;5.480;2024-03-06T08:08:13;102188.91;;;3.57;100.00
76637;BME280;65532;52.124;5.480;2024-03-06T08:10:39;102200.09;;;3.70;100.00
76637;BME280;65532;52.124;5.480;2024-03-06T08:13:06;102195.13;;;3.75;100.00
76637;BME280;65532;52.124;5.480;2024-03-06T08:15:32;102202.00;;;3.78;100.00
76637;BME280;65532;52.124;5.480;2024-03-06T08:17:59;102202.16;;;3.76;100.00
76637;BME280;65532;52.124;5.480;2024-03-06T08:20:26;102197.72;;;3.85;100.00
76637;BME280;65532;52.124;5.480;2024-03-06T08:22:55;102202.78;;;3.88;100.00
76637;BME280;65532;52.124;5.480;2024-03-06T08:25:22;102202.56;;;3.81;100.00
76637;BME280;65532;52.124;5.480;2024-03-06T08:27:49;102210.19;;;3.76;100.00
76637;BME280;65532;52.124;5.480;2024-03-06T08:30:15;102208.59;;;3.83;100.00
76637;BME280;65532;52.124;5.480;2024-03-06T08:32:42;102212.66;;;3.87;100.00
76637;BME280;65532;52.124;5.480;2024-03-06T08:35:11;102222.81;;;4.02;100.00
76637;BME280;65532;52.124;5.480;2024-03-06T08:37:43;102229.84;;;4.20;100.00
76637;BME280;65532;52.124;5.480;2024-03-06T08:40:10;102226.16;;;4.21;100.00
76637;BME280;65532;52.124;5.480;2024-03-06T08:42:41;102229.00;;;4.20;100.00
76637;BME280;65532;52.124;5.480;2024-03-06T08:45:11;102234.88;;;4.24;100.00
76637;BME280;65532;52.124;5.480;2024-03-06T08:47:38;102232.72;;;4.45;100.00
76637;BME280;65532;52.124;5.480;2024-03-06T08:50:05;102234.00;;;4.59;100.00
76637;BME280;65532;52.124;5.480;2024-03-06T08:52:31;102232.00;;;4.61;100.00
76637;BME280;65532;52.124;5.480;2024-03-06T08:54:58;102235.56;;;4.69;100.00
76637;BME280;65532;52.124;5.480;2024-03-06T08:57:24;102247.34;;;4.76;100.00
76637;BME280;65532;52.124;5.480;2024-03-06T08:59:54;102256.44;;;4.84;100.00
76637;BME280;65532;52.124;5.480;2024-03-06T09:02:21;102256.28;;;4.85;100.00
76637;BME280;65532;52.124;5.480;2024-03-06T09:04:49;102258.44;;;4.81;100.00
76637;BME280;65532;52.124;5.480;2024-03-06T09:07:18;102257.34;;;4.92;100.00
76637;BME280;65532;52.124;5.480;2024-03-06T09:09:45;102270.38;;;4.87;100.00
76637;BME280;65532;52.124;5.480;2024-03-06T09:12:12;102261.56;;;4.95;100.00
76637;BME280;65532;52.124;5.480;2024-03-06T09:14:39;102260.44;;;5.05;100.00
76637;BME280;65532;52.124;5.480;2024-03-06T09:17:07;102268.50;;;5.05;100.00
76637;BME280;65532;52.124;5.480;2024-03-06T09:19:37;102276.25;;;5.17;100.00
76637;BME280;65532;52.124;5.480;2024-03-06T09:22:06;102275.81;;;5.29;100.00
76637;BME280;65532;52.124;5.480;2024-03-06T09:24:33;102274.38;;;5.43;100.00
76637;BME280;65532;52.124;5.480;2024-03-06T09:27:01;102278.41;;;5.47;100.00
76637;BME280;65532;52.124;5.480;2024-03-06T09:29:28;102278.28;;;5.57;100.00
76637;BME280;65532;52.124;5.480;2024-03-06T09:31:55;102292.22;;;5.60;100.00
76637;BME280;65532;52.124;5.480;2024-03-06T09:34:21;102294.94;;;5.68;100.00
76637;BME280;65532;52.124;5.480;2024-03-06T09:36:49;102298.47;;;5.69;100.00
76637;BME280;65532;52.124;5.480;2024-03-06T09:39:17;102298.66;;;5.84;100.00
76637;BME280;65532;52.124;5.480;2024-03-06T09:41:44;102293.44;;;5.82;100.00
76637;BME280;65532;52.124;5.480;2024-03-06T09:44:12;102303.69;;;5.79;100.00
76637;BME280;65532;52.124;5.480;2024-03-06T09:46:44;102312.09;;;5.84;100.00
76637;BME280;65532;52.124;5.480;2024-03-06T09:49:11;102309.97;;;5.95;100.00
76637;BME280;65532;52.124;5.480;2024-03-06T09:51:48;102313.22;;;6.07;100.00
76637;BME280;65532;52.124;5.480;2024-03-06T09:54:19;102314.22;;;6.14;100.00
76637;BME280;65532;52.124;5.480;2024-03-06T09:56:47;102317.41;;;6.10;100.00
76637;BME280;65532;52.124;5.480;2024-03-06T09:59:14;102315.94;;;6.23;100.00
76637;BME280;65532;52.124;5.480;2024-03-06T10:01:53;102321.00;;;6.51;100.00
76637;BME280;65532;52.124;5.480;2024-03-06T10:04:25;102323.34;;;6.54;100.00
76637;BME280;65532;52.124;5.480;2024-03-06T10:06:56;102329.22;;;6.57;100.00
76637;BME280;65532;52.124;5.480;2024-03-06T10:09:24;102330.41;;;6.63;100.00
76637;BME280;65532;52.124;5.480;2024-03-06T10:11:51;102321.16;;;6.74;100.00
76637;BME280;65532;52.124;5.480;2024-03-06T10:14:24;102326.69;;;6.88;100.00
76637;BME280;65532;52.124;5.480;2024-03-06T10:16:56;102331.22;;;7.04;100.00
76637;BME280;65532;52.124;5.480;2024-03-06T10:19:24;102331.03;;;7.06;100.00
76637;BME280;65532;52.124;5.480;2024-03-06T10:21:51;102329.47;;;7.28;100.00
76637;BME280;65532;52.124;5.480;2024-03-06T10:24:19;102327.59;;;7.36;100.00
76637;BME280;65532;52.124;5.480;2024-03-06T10:26:47;102334.47;;;7.47;100.00
76637;BME280;65532;52.124;5.480;2024-03-06T10:29:16;102332.97;;;7.36;100.00
76637;BME280;65532;52.124;5.480;2024-03-06T10:31:57;102343.41;;;7.47;100.00
76637;BME280;65532;52.124;5.480;2024-03-06T10:34:27;102343.34;;;7.64;100.00
76637;BME280;65532;52.124;5.480;2024-03-06T10:36:55;102343.63;;;7.77;100.00
76637;BME280;65532;52.124;5.480;2024-03-06T10:39:23;102356.44;;;7.75;100.00
76637;BME280;65532;52.124;5.480;2024-03-06T10:41:54;102351.47;;;7.47;100.00
76637;BME280;65532;52.124;5.480;2024-03-06T10:44:23;102349.56;;;7.56;100.00
76637;BME280;65532;52.124;5.480;2024-03-06T10:46:57;102344.28;;;7.79;100.00
76637;BME280;65532;52.124;5.480;2024-03-06T10:49:25;102340.38;;;7.90;100.00
76637;BME280;65532;52.124;5.480;2024-03-06T10:51:52;102350.34;;;7.81;100.00
76637;BME280;65532;52.124;5.480;2024-03-06T10:54:21;102353.78;;;7.98;100.00
76637;BME280;65532;52.124;5.480;2024-03-06T10:56:49;102351.06;;;8.06;100.00
76637;BME280;65532;52.124;5.480;2024-03-06T10:59:17;102346.91;;;7.95;100.00
76637;BME280;65532;52.124;5.480;2024-03-06T11:01:46;102345.50;;;8.30;100.00
76637;BME280;65532;52.124;5.480;2024-03-06T11:04:13;102352.56;;;8.39;100.00
76637;BME280;65532;52.124;5.480;2024-03-06T11:06:41;102348.56;;;8.27;100.00
76637;BME280;65532;52.124;5.480;2024-03-06T11:09:08;102352.66;;;8.46;100.00
76637;BME280;65532;52.124;5.480;2024-03-06T11:11:50;102360.41;;;8.72;100.00
76637;BME280;65532;52.124;5.480;2024-03-06T11:14:21;102366.63;;;8.50;100.00
76637;BME280;65532;52.124;5.480;2024-03-06T11:19:26;102357.59;;;8.43;100.00
76637;BME280;65532;52.124;5.480;2024-03-06T11:21:53;102361.66;;;8.61;100.00
76637;BME280;65532;52.124;5.480;2024-03-06T11:24:21;102363.38;;;9.00;100.00
76637;BME280;65532;52.124;5.480;2024-03-06T11:26:56;102356.22;;;9.07;100.00
76637;BME280;65532;52.124;5.480;2024-03-06T11:29:24;102361.28;;;8.87;100.00
76637;BME280;65532;52.124;5.480;2024-03-06T11:32:01;102357.03;;;9.08;100.00
76637;BME280;65532;52.124;5.480;2024-03-06T11:34:28;102360.06;;;9.42;100.00
76637;BME280;65532;52.124;5.480;2024-03-06T11:36:57;102358.75;;;9.53;100.00
76637;BME280;65532;52.124;5.480;2024-03-06T11:39:23;102359.47;;;9.76;100.00
76637;BME280;65532;52.124;5.480;2024-03-06T11:41:50;102369.34;;;9.99;100.00
76637;BME280;65532;52.124;5.480;2024-03-06T11:44:19;102359.03;;;10.24;100.00
76637;BME280;65532;52.124;5.480;2024-03-06T11:46:59;102361.66;;;10.32;100.00
76637;BME280;65532;52.124;5.480;2024-03-06T11:49:31;102365.44;;;10.37;100.00
76637;BME280;65532;52.124;5.480;2024-03-06T11:52:01;102361.41;;;10.48;100.00
76637;BME280;65532;52.124;5.480;2024-03-06T11:54:29;102366.34;;;10.66;100.00
76637;BME280;65532;52.124;5.480;2024-03-06T11:56:58;102371.31;;;10.84;100.00
76637;BME280;65532;52.124;5.480;2024-03-06T11:59:29;102370.06;;;11.07;100.00
76637;BME280;65532;52.124;5.480;2024-03-06T12:02:04;102374.44;;;11.08;100.00
76637;BME280;65532;52.124;5.480;2024-03-06T12:04:31;102376.66;;;11.26;100.00
76637;BME280;65532;52.124;5.480;2024-03-06T12:07:00;102374.38;;;11.30;100.00
76637;BME280;65532;52.124;5.480;2024-03-06T12:09:35;102381.97;;;11.41;100.00
76637;BME280;65532;52.124;5.480;2024-03-06T12:12:08;102373.78;;;11.34;100.00
76637;BME280;65532;52.124;5.480;2024-03-06T12:14:35;102383.72;;;11.21;100.00
76637;BME280;65532;52.124;5.480;2024-03-06T12:17:02;102374.81;;;10.77;100.00
76637;BME280;65532;52.124;5.480;2024-03-06T12:19:35;102380.53;;;10.89;100.00
76637;BME280;65532;52.124;5.480;2024-03-06T12:22:03;102381.13;;;11.13;100.00
76637;BME280;65532;52.124;5.480;2024-03-06T12:24:33;102389.63;;;11.31;100.00
76637;BME280;65532;52.124;5.480;2024-03-06T12:27:04;102388.91;;;11.50;100.00
76637;BME280;65532;52.124;5.480;2024-03-06T12:29:32;102380.91;;;11.70;100.00
76637;BME280;65532;52.124;5.480;2024-03-06T12:32:00;102374.09;;;11.81;100.00
76637;BME280;65532;52.124;5.480;2024-03-06T12:34:27;102373.31;;;11.93;100.00
76637;BME280;65532;52.124;5.480;2024-03-06T12:36:53;102377.28;;;11.91;100.00
76637;BME280;65532;52.124;5.480;2024-03-06T12:39:20;102385.06;;;12.01;100.00
76637;BME280;65532;52.124;5.480;2024-03-06T12:41:50;102379.84;;;12.12;100.00
76637;BME280;65532;52.124;5.480;2024-03-06T12:44:19;102378.81;;;12.13;100.00
76637;BME280;65532;52.124;5.480;2024-03-06T12:46:46;102368.03;;;12.33;100.00
76637;BME280;65532;52.124;5.480;2024-03-06T12:49:13;102372.66;;;12.52;99.65
76637;BME280;65532;52.124;5.480;2024-03-06T12:51:39;102379.78;;;12.67;99.21
76637;BME280;65532;52.124;5.480;2024-03-06T12:54:06;102370.16;;;12.77;98.20
76637;BME280;65532;52.124;5.480;2024-03-06T12:56:35;102372.28;;;12.88;97.57
76637;BME280;65532;52.124;5.480;2024-03-06T12:59:01;102364.34;;;12.80;95.92
76637;BME280;65532;52.124;5.480;2024-03-06T13:01:28;102366.41;;;12.52;98.21